sensor_id;sensor_type;location;lat;lon;timestamp;temperature;humidity
1880;DHT22;49285;49.002;8.390;2023-09-07T00:00:48;23.60;92.00
1880;DHT22;49285;49.002;8.390;2023-09-07T00:03:14;23.60;92.00
1880;DHT22;49285;49.002;8.390;2023-09-07T00:05:40;23.60;92.20
1880;DHT22;49285;49.002;8.390;2023-09-07T00:08:05;23.60;92.30
1880;DHT22;49285;49.002;8.390;2023-09-07T00:10:32;23.60;92.40
1880;DHT22;49285;49.002;8.390;2023-09-07T00:13:03;23.60;92.50
1880;DHT22;49285;49.002;8.390;2023-09-07T00:15:36;23.60;92.50
1880;DHT22;49285;49.002;8.390;2023-09-07T00:18:02;23.50;92.50
1880;DHT22;49285;49.002;8.390;2023-09-07T00:20:28;23.50;92.50
1880;DHT22;49285;49.002;8.390;2023-09-07T00:22:54;23.50;92.50
1880;DHT22;49285;49.002;8.390;2023-09-07T00:25:19;23.40;92.50
1880;DHT22;49285;49.002;8.390;2023-09-07T00:27:46;23.40;92.60
1880;DHT22;49285;49.002;8.390;2023-09-07T00:30:11;23.40;92.70
1880;DHT22;49285;49.002;8.390;2023-09-07T00:32:38;23.30;92.70
1880;DHT22;49285;49.002;8.390;2023-09-07T00:35:05;23.30;92.80
1880;DHT22;49285;49.002;8.390;2023-09-07T00:37:31;23.30;92.90
1880;DHT22;49285;49.002;8.390;2023-09-07T00:39:56;23.30;93.00
1880;DHT22;49285;49.002;8.390;2023-09-07T00:42:22;23.20;93.00
1880;DHT22;49285;49.002;8.390;2023-09-07T00:44:48;23.20;93.10
1880;DHT22;49285;49.002;8.390;2023-09-07T00:47:15;23.20;93.20
1880;DHT22;49285;49.002;8.390;2023-09-07T00:49:40;23.10;93.20
1880;DHT22;49285;49.002;8.390;2023-09-07T00:52:08;23.10;93.30
1880;DHT22;49285;49.002;8.390;2023-09-07T00:54:35;23.10;93.30
1880;DHT22;49285;49.002;8.390;2023-09-07T00:57:02;23.10;93.30
1880;DHT22;49285;49.002;8.390;2023-09-07T00:59:27;23.00;93.40
1880;DHT22;49285;49.002;8.390;2023-09-07T01:01:53;23.00;93.40
1880;DHT22;49285;49.002;8.390;2023-09-07T01:04:19;22.90;93.40
1880;DHT22;49285;49.002;8.390;2023-09-07T01:07:02;22.90;93.50
1880;DHT22;49285;49.002;8.390;2023-09-07T01:09:30;22.90;93.50
1880;DHT22;49285;49.002;8.390;2023-09-07T01:11:57;22.80;93.50
1880;DHT22;49285;49.002;8.390;2023-09-07T01:14:23;22.80;93.50
1880;DHT22;49285;49.002;8.390;2023-09-07T01:16:49;22.80;93.60
1880;DHT22;49285;49.002;8.390;2023-09-07T01:19:15;22.80;93.60
1880;DHT22;49285;49.002;8.390;2023-09-07T01:21:41;22.70;93.50
1880;DHT22;49285;49.002;8.390;2023-09-07T01:24:09;22.70;93.60
1880;DHT22;49285;49.002;8.390;2023-09-07T01:26:36;22.70;93.80
1880;DHT22;49285;49.002;8.390;2023-09-07T01:29:06;22.70;93.80
1880;DHT22;49285;49.002;8.390;2023-09-07T01:31:38;22.70;93.90
1880;DHT22;49285;49.002;8.390;2023-09-07T01:34:04;22.60;94.00
1880;DHT22;49285;49.002;8.390;2023-09-07T01:36:30;22.60;94.00
1880;DHT22;49285;49.002;8.390;2023-09-07T01:38:56;22.60;94.20
1880;DHT22;49285;49.002;8.390;2023-09-07T01:41:21;22.60;94.20
1880;DHT22;49285;49.002;8.390;2023-09-07T01:43:47;22.60;94.20
1880;DHT22;49285;49.002;8.390;2023-09-07T01:46:13;22.60;94.20
1880;DHT22;49285;49.002;8.390;2023-09-07T01:48:38;22.60;94.20
1880;DHT22;49285;49.002;8.390;2023-09-07T01:51:04;22.50;94.30
1880;DHT22;49285;49.002;8.390;2023-09-07T01:53:29;22.50;94.30
1880;DHT22;49285;49.002;8.390;2023-09-07T01:55:55;22.50;94.40
1880;DHT22;49285;49.002;8.390;2023-09-07T01:58:21;22.40;94.40
1880;DHT22;49285;49.002;8.390;2023-09-07T02:00:47;22.40;94.40
1880;DHT22;49285;49.002;8.390;2023-09-07T02:03:12;22.40;94.50
1880;DHT22;49285;49.002;8.390;2023-09-07T02:05:39;22.30;94.60
1880;DHT22;49285;49.002;8.390;2023-09-07T02:08:05;22.30;94.70
1880;DHT22;49285;49.002;8.390;2023-09-07T02:10:30;22.30;94.80
1880;DHT22;49285;49.002;8.390;2023-09-07T02:12:56;22.20;94.80
1880;DHT22;49285;49.002;8.390;2023-09-07T02:15:23;22.20;94.80
1880;DHT22;49285;49.002;8.390;2023-09-07T02:17:49;22.10;94.90
1880;DHT22;49285;49.002;8.390;2023-09-07T02:20:15;22.10;95.10
1880;DHT22;49285;49.002;8.390;2023-09-07T02:22:40;22.00;95.10
1880;DHT22;49285;49.002;8.390;2023-09-07T02:25:06;22.00;95.20
1880;DHT22;49285;49.002;8.390;2023-09-07T02:27:35;22.00;95.30
1880;DHT22;49285;49.002;8.390;2023-09-07T02:30:02;22.00;95.30
1880;DHT22;49285;49.002;8.390;2023-09-07T02:32:28;21.90;95.30
1880;DHT22;49285;49.002;8.390;2023-09-07T02:34:53;21.90;95.50
1880;DHT22;49285;49.002;8.390;2023-09-07T02:37:19;21.80;95.60
1880;DHT22;49285;49.002;8.390;2023-09-07T02:39:45;21.80;95.60
1880;DHT22;49285;49.002;8.390;2023-09-07T02:42:10;21.80;95.60
1880;DHT22;49285;49.002;8.390;2023-09-07T02:44:36;21.80;95.80
1880;DHT22;49285;49.002;8.390;2023-09-07T02:47:01;21.70;95.80
1880;DHT22;49285;49.002;8.390;2023-09-07T02:49:27;21.70;95.90
1880;DHT22;49285;49.002;8.390;2023-09-07T02:51:52;21.70;96.00
1880;DHT22;49285;49.002;8.390;2023-09-07T02:54:18;21.70;96.10
1880;DHT22;49285;49.002;8.390;2023-09-07T02:56:44;21.70;96.10
1880;DHT22;49285;49.002;8.390;2023-09-07T02:59:09;21.70;96.20
1880;DHT22;49285;49.002;8.390;2023-09-07T03:01:35;21.60;96.10
1880;DHT22;49285;49.002;8.390;2023-09-07T03:04:00;21.60;96.20
1880;DHT22;49285;49.002;8.390;2023-09-07T03:06:26;21.60;96.40
1880;DHT22;49285;49.002;8.390;2023-09-07T03:08:51;21.60;96.40
1880;DHT22;49285;49.002;8.390;2023-09-07T03:11:20;21.60;96.40
1880;DHT22;49285;49.002;8.390;2023-09-07T03:13:45;21.60;96.50
1880;DHT22;49285;49.002;8.390;2023-09-07T03:16:11;21.60;96.50
1880;DHT22;49285;49.002;8.390;2023-09-07T03:18:37;21.60;96.50
1880;DHT22;49285;49.002;8.390;2023-09-07T03:21:03;21.60;96.50
1880;DHT22;49285;49.002;8.390;2023-09-07T03:23:30;21.60;96.50
1880;DHT22;49285;49.002;8.390;2023-09-07T03:25:56;21.60;96.50
1880;DHT22;49285;49.002;8.390;2023-09-07T03:28:22;21.50;96.60
1880;DHT22;49285;49.002;8.390;2023-09-07T03:30:48;21.50;96.60
1880;DHT22;49285;49.002;8.390;2023-09-07T03:33:14;21.50;96.60
1880;DHT22;49285;49.002;8.390;2023-09-07T03:35:39;21.50;96.70
1880;DHT22;49285;49.002;8.390;2023-09-07T03:38:06;21.40;96.60
1880;DHT22;49285;49.002;8.390;2023-09-07T03:40:31;21.40;96.70
1880;DHT22;49285;49.002;8.390;2023-09-07T03:42:57;21.40;96.70
1880;DHT22;49285;49.002;8.390;2023-09-07T03:45:23;21.40;96.80
1880;DHT22;49285;49.002;8.390;2023-09-07T03:47:48;21.40;96.80
1880;DHT22;49285;49.002;8.390;2023-09-07T03:50:14;21.40;96.80
1880;DHT22;49285;49.002;8.390;2023-09-07T03:52:40;21.40;96.90
1880;DHT22;49285;49.002;8.390;2023-09-07T03:55:06;21.30;96.90
1880;DHT22;49285;49.002;8.390;2023-09-07T03:57:32;21.30;96.90
1880;DHT22;49285;49.002;8.390;2023-09-07T03:59:59;21.30;97.00
1880;DHT22;49285;49.002;8.390;2023-09-07T04:02:25;21.30;97.10
1880;DHT22;49285;49.002;8.390;2023-09-07T04:04:54;21.30;97.10
1880;DHT22;49285;49.002;8.390;2023-09-07T04:07:21;21.30;97.10
1880;DHT22;49285;49.002;8.390;2023-09-07T04:09:46;21.30;97.40
1880;DHT22;49285;49.002;8.390;2023-09-07T04:12:14;21.30;97.30
1880;DHT22;49285;49.002;8.390;2023-09-07T04:14:39;21.30;97.40
1880;DHT22;49285;49.002;8.390;2023-09-07T04:17:07;21.20;97.40
1880;DHT22;49285;49.002;8.390;2023-09-07T04:19:32;21.20;97.50
1880;DHT22;49285;49.002;8.390;2023-09-07T04:21:58;21.20;97.50
1880;DHT22;49285;49.002;8.390;2023-09-07T04:24:23;21.20;97.50
1880;DHT22;49285;49.002;8.390;2023-09-07T04:26:49;21.20;97.50
1880;DHT22;49285;49.002;8.390;2023-09-07T04:29:15;21.20;97.60
1880;DHT22;49285;49.002;8.390;2023-09-07T04:31:41;21.20;97.60
1880;DHT22;49285;49.002;8.390;2023-09-07T04:34:07;21.20;97.60
1880;DHT22;49285;49.002;8.390;2023-09-07T04:36:33;21.20;97.60
1880;DHT22;49285;49.002;8.390;2023-09-07T04:38:58;21.10;97.70
1880;DHT22;49285;49.002;8.390;2023-09-07T04:41:24;21.10;97.70
1880;DHT22;49285;49.002;8.390;2023-09-07T04:43:50;21.10;97.70
1880;DHT22;49285;49.002;8.390;2023-09-07T04:46:15;21.10;97.80
1880;DHT22;49285;49.002;8.390;2023-09-07T04:48:42;21.10;97.80
1880;DHT22;49285;49.002;8.390;2023-09-07T04:51:09;21.10;97.90
1880;DHT22;49285;49.002;8.390;2023-09-07T04:53:36;21.10;98.00
1880;DHT22;49285;49.002;8.390;2023-09-07T04:56:03;21.10;98.10
1880;DHT22;49285;49.002;8.390;2023-09-07T04:58:32;21.10;98.10
1880;DHT22;49285;49.002;8.390;2023-09-07T05:01:09;21.10;98.20
1880;DHT22;49285;49.002;8.390;2023-09-07T05:03:35;21.00;98.20
1880;DHT22;49285;49.002;8.390;2023-09-07T05:06:01;21.00;98.30
1880;DHT22;49285;49.002;8.390;2023-09-07T05:08:28;21.00;98.30
1880;DHT22;49285;49.002;8.390;2023-09-07T05:11:02;21.00;98.40
1880;DHT22;49285;49.002;8.390;2023-09-07T05:13:28;21.00;98.50
1880;DHT22;49285;49.002;8.390;2023-09-07T05:15:55;21.00;98.60
1880;DHT22;49285;49.002;8.390;2023-09-07T05:18:21;21.00;98.60
1880;DHT22;49285;49.002;8.390;2023-09-07T05:20:47;21.00;98.70
1880;DHT22;49285;49.002;8.390;2023-09-07T05:23:14;20.90;98.80
1880;DHT22;49285;49.002;8.390;2023-09-07T05:25:54;20.90;99.00
1880;DHT22;49285;49.002;8.390;2023-09-07T05:28:21;20.90;99.10
1880;DHT22;49285;49.002;8.390;2023-09-07T05:30:47;20.90;99.10
1880;DHT22;49285;49.002;8.390;2023-09-07T05:33:15;20.80;99.20
1880;DHT22;49285;49.002;8.390;2023-09-07T05:35:41;20.80;99.30
1880;DHT22;49285;49.002;8.390;2023-09-07T05:38:08;20.90;99.50
1880;DHT22;49285;49.002;8.390;2023-09-07T05:40:35;20.80;99.50
1880;DHT22;49285;49.002;8.390;2023-09-07T05:43:01;20.80;99.60
1880;DHT22;49285;49.002;8.390;2023-09-07T05:45:30;20.80;99.70
1880;DHT22;49285;49.002;8.390;2023-09-07T05:47:56;20.80;99.90
1880;DHT22;49285;49.002;8.390;2023-09-07T05:50:21;20.80;99.90
1880;DHT22;49285;49.002;8.390;2023-09-07T05:52:47;20.80;99.90
1880;DHT22;49285;49.002;8.390;2023-09-07T05:55:13;20.80;99.90
1880;DHT22;49285;49.002;8.390;2023-09-07T05:57:41;20.80;99.90
1880;DHT22;49285;49.002;8.390;2023-09-07T06:00:07;20.90;99.90
1880;DHT22;49285;49.002;8.390;2023-09-07T06:02:33;20.80;99.90
1880;DHT22;49285;49.002;8.390;2023-09-07T06:04:59;20.80;99.90
1880;DHT22;49285;49.002;8.390;2023-09-07T06:07:24;20.90;99.90
1880;DHT22;49285;49.002;8.390;2023-09-07T06:09:50;20.90;99.90
1880;DHT22;49285;49.002;8.390;2023-09-07T06:12:15;20.90;99.90
1880;DHT22;49285;49.002;8.390;2023-09-07T06:14:41;20.90;99.90
1880;DHT22;49285;49.002;8.390;2023-09-07T06:17:06;20.90;99.90
1880;DHT22;49285;49.002;8.390;2023-09-07T06:19:32;20.90;99.90
1880;DHT22;49285;49.002;8.390;2023-09-07T06:21:58;21.00;99.90
1880;DHT22;49285;49.002;8.390;2023-09-07T06:24:23;21.00;99.90
1880;DHT22;49285;49.002;8.390;2023-09-07T06:26:49;21.00;99.90
1880;DHT22;49285;49.002;8.390;2023-09-07T06:29:15;21.10;99.90
1880;DHT22;49285;49.002;8.390;2023-09-07T06:31:40;21.10;99.90
1880;DHT22;49285;49.002;8.390;2023-09-07T06:34:06;21.10;99.90
1880;DHT22;49285;49.002;8.390;2023-09-07T06:36:31;21.20;99.90
1880;DHT22;49285;49.002;8.390;2023-09-07T06:38:57;21.20;99.90
1880;DHT22;49285;49.002;8.390;2023-09-07T06:41:24;21.20;99.90
1880;DHT22;49285;49.002;8.390;2023-09-07T06:43:49;21.20;99.90
1880;DHT22;49285;49.002;8.390;2023-09-07T06:46:15;21.30;99.90
1880;DHT22;49285;49.002;8.390;2023-09-07T06:48:40;21.30;99.90
1880;DHT22;49285;49.002;8.390;2023-09-07T06:51:06;21.30;99.90
1880;DHT22;49285;49.002;8.390;2023-09-07T06:53:33;21.40;99.90
1880;DHT22;49285;49.002;8.390;2023-09-07T06:55:59;21.40;99.90
1880;DHT22;49285;49.002;8.390;2023-09-07T06:58:25;21.50;99.90
1880;DHT22;49285;49.002;8.390;2023-09-07T07:00:51;21.50;99.90
1880;DHT22;49285;49.002;8.390;2023-09-07T07:03:16;21.50;99.90
1880;DHT22;49285;49.002;8.390;2023-09-07T07:05:42;21.50;99.90
1880;DHT22;49285;49.002;8.390;2023-09-07T07:08:09;21.60;99.90
1880;DHT22;49285;49.002;8.390;2023-09-07T07:10:34;21.60;99.90
1880;DHT22;49285;49.002;8.390;2023-09-07T07:13:00;21.70;99.90
1880;DHT22;49285;49.002;8.390;2023-09-07T07:15:25;21.70;99.90
1880;DHT22;49285;49.002;8.390;2023-09-07T07:17:51;21.70;99.90
1880;DHT22;49285;49.002;8.390;2023-09-07T07:20:17;21.80;99.90
1880;DHT22;49285;49.002;8.390;2023-09-07T07:22:42;21.80;99.90
1880;DHT22;49285;49.002;8.390;2023-09-07T07:25:08;21.90;99.90
1880;DHT22;49285;49.002;8.390;2023-09-07T07:27:33;21.90;99.90
1880;DHT22;49285;49.002;8.390;2023-09-07T07:29:59;21.90;99.90
1880;DHT22;49285;49.002;8.390;2023-09-07T07:32:25;22.00;99.90
1880;DHT22;49285;49.002;8.390;2023-09-07T07:34:50;22.00;99.90
1880;DHT22;49285;49.002;8.390;2023-09-07T07:37:16;22.10;99.90
1880;DHT22;49285;49.002;8.390;2023-09-07T07:39:41;22.20;99.90
1880;DHT22;49285;49.002;8.390;2023-09-07T07:42:07;22.20;99.90
1880;DHT22;49285;49.002;8.390;2023-09-07T07:44:33;22.30;99.90
1880;DHT22;49285;49.002;8.390;2023-09-07T07:46:58;22.30;99.90
1880;DHT22;49285;49.002;8.390;2023-09-07T07:49:24;22.40;99.90
1880;DHT22;49285;49.002;8.390;2023-09-07T07:51:50;22.40;99.90
1880;DHT22;49285;49.002;8.390;2023-09-07T07:54:16;22.50;99.90
1880;DHT22;49285;49.002;8.390;2023-09-07T07:56:42;22.50;99.90
1880;DHT22;49285;49.002;8.390;2023-09-07T07:59:08;22.60;99.90
1880;DHT22;49285;49.002;8.390;2023-09-07T08:01:33;22.60;99.90
1880;DHT22;49285;49.002;8.390;2023-09-07T08:03:59;22.70;99.90
1880;DHT22;49285;49.002;8.390;2023-09-07T08:06:24;22.70;99.90
1880;DHT22;49285;49.002;8.390;2023-09-07T08:08:50;22.80;99.90
1880;DHT22;49285;49.002;8.390;2023-09-07T08:11:15;22.90;99.90
1880;DHT22;49285;49.002;8.390;2023-09-07T08:13:42;22.90;99.90
1880;DHT22;49285;49.002;8.390;2023-09-07T08:16:10;23.00;99.90
1880;DHT22;49285;49.002;8.390;2023-09-07T08:18:36;23.10;99.90
1880;DHT22;49285;49.002;8.390;2023-09-07T08:21:01;23.10;99.90
1880;DHT22;49285;49.002;8.390;2023-09-07T08:23:27;23.20;99.90
1880;DHT22;49285;49.002;8.390;2023-09-07T08:25:53;23.30;99.90
1880;DHT22;49285;49.002;8.390;2023-09-07T08:28:19;23.30;99.90
1880;DHT22;49285;49.002;8.390;2023-09-07T08:30:49;23.40;99.90
1880;DHT22;49285;49.002;8.390;2023-09-07T08:33:17;23.40;99.90
1880;DHT22;49285;49.002;8.390;2023-09-07T08:35:42;23.50;99.90
1880;DHT22;49285;49.002;8.390;2023-09-07T08:38:10;23.60;99.90
1880;DHT22;49285;49.002;8.390;2023-09-07T08:40:36;23.60;99.90
1880;DHT22;49285;49.002;8.390;2023-09-07T08:43:03;23.70;99.90
1880;DHT22;49285;49.002;8.390;2023-09-07T08:45:30;23.70;99.90
1880;DHT22;49285;49.002;8.390;2023-09-07T08:47:59;23.70;99.90
1880;DHT22;49285;49.002;8.390;2023-09-07T08:50:25;23.80;99.90
1880;DHT22;49285;49.002;8.390;2023-09-07T08:52:54;23.80;99.90
1880;DHT22;49285;49.002;8.390;2023-09-07T08:55:21;23.90;99.90
1880;DHT22;49285;49.002;8.390;2023-09-07T08:57:46;24.00;99.90
1880;DHT22;49285;49.002;8.390;2023-09-07T09:00:12;24.00;99.90
1880;DHT22;49285;49.002;8.390;2023-09-07T09:02:42;24.10;99.90
1880;DHT22;49285;49.002;8.390;2023-09-07T09:05:12;24.10;99.90
1880;DHT22;49285;49.002;8.390;2023-09-07T09:07:39;24.20;99.90
1880;DHT22;49285;49.002;8.390;2023-09-07T09:10:08;24.30;99.90
1880;DHT22;49285;49.002;8.390;2023-09-07T09:12:34;24.40;99.90
1880;DHT22;49285;49.002;8.390;2023-09-07T09:15:01;24.40;99.90
1880;DHT22;49285;49.002;8.390;2023-09-07T09:17:29;24.40;99.90
1880;DHT22;49285;49.002;8.390;2023-09-07T09:19:55;24.40;99.90
1880;DHT22;49285;49.002;8.390;2023-09-07T09:22:20;24.50;99.90
1880;DHT22;49285;49.002;8.390;2023-09-07T09:24:50;24.60;99.90
1880;DHT22;49285;49.002;8.390;2023-09-07T09:27:16;24.60;99.90
1880;DHT22;49285;49.002;8.390;2023-09-07T09:29:42;24.70;99.90
1880;DHT22;49285;49.002;8.390;2023-09-07T09:32:08;24.80;99.90
1880;DHT22;49285;49.002;8.390;2023-09-07T09:34:34;24.80;99.90
1880;DHT22;49285;49.002;8.390;2023-09-07T09:37:01;24.90;99.90
1880;DHT22;49285;49.002;8.390;2023-09-07T09:39:27;24.90;99.90
1880;DHT22;49285;49.002;8.390;2023-09-07T09:41:53;25.00;99.90
1880;DHT22;49285;49.002;8.390;2023-09-07T09:44:21;25.00;99.90
1880;DHT22;49285;49.002;8.390;2023-09-07T09:46:54;25.10;99.90
1880;DHT22;49285;49.002;8.390;2023-09-07T09:49:22;25.20;99.90
1880;DHT22;49285;49.002;8.390;2023-09-07T09:51:50;25.20;99.90
1880;DHT22;49285;49.002;8.390;2023-09-07T09:54:17;25.30;99.90
1880;DHT22;49285;49.002;8.390;2023-09-07T09:56:43;25.40;99.60
1880;DHT22;49285;49.002;8.390;2023-09-07T09:59:10;25.50;99.40
1880;DHT22;49285;49.002;8.390;2023-09-07T10:01:47;25.50;99.30
1880;DHT22;49285;49.002;8.390;2023-09-07T10:04:17;25.60;99.30
1880;DHT22;49285;49.002;8.390;2023-09-07T10:06:58;25.60;99.10
1880;DHT22;49285;49.002;8.390;2023-09-07T10:09:29;25.70;99.10
1880;DHT22;49285;49.002;8.390;2023-09-07T10:11:57;25.70;99.00
1880;DHT22;49285;49.002;8.390;2023-09-07T10:14:25;25.70;99.10
1880;DHT22;49285;49.002;8.390;2023-09-07T10:16:52;25.80;99.10
1880;DHT22;49285;49.002;8.390;2023-09-07T10:19:24;25.80;99.10
1880;DHT22;49285;49.002;8.390;2023-09-07T10:21:53;25.90;99.10
1880;DHT22;49285;49.002;8.390;2023-09-07T10:24:27;26.00;99.00
1880;DHT22;49285;49.002;8.390;2023-09-07T10:27:04;26.00;98.90
1880;DHT22;49285;49.002;8.390;2023-09-07T10:29:41;26.10;98.80
1880;DHT22;49285;49.002;8.390;2023-09-07T10:32:08;26.20;98.70
1880;DHT22;49285;49.002;8.390;2023-09-07T10:34:36;26.20;98.70
1880;DHT22;49285;49.002;8.390;2023-09-07T10:37:04;26.30;98.80
1880;DHT22;49285;49.002;8.390;2023-09-07T10:39:33;26.30;98.90
1880;DHT22;49285;49.002;8.390;2023-09-07T10:41:59;26.40;98.80
1880;DHT22;49285;49.002;8.390;2023-09-07T10:44:29;26.50;98.80
1880;DHT22;49285;49.002;8.390;2023-09-07T10:46:56;26.50;98.60
1880;DHT22;49285;49.002;8.390;2023-09-07T10:49:23;26.60;98.50
1880;DHT22;49285;49.002;8.390;2023-09-07T10:51:49;26.60;98.60
1880;DHT22;49285;49.002;8.390;2023-09-07T10:54:27;26.70;98.50
1880;DHT22;49285;49.002;8.390;2023-09-07T10:56:53;26.70;98.50
1880;DHT22;49285;49.002;8.390;2023-09-07T10:59:19;26.80;98.40
1880;DHT22;49285;49.002;8.390;2023-09-07T11:01:45;26.80;98.30
1880;DHT22;49285;49.002;8.390;2023-09-07T11:04:11;26.90;98.20
1880;DHT22;49285;49.002;8.390;2023-09-07T11:06:38;27.00;98.10
1880;DHT22;49285;49.002;8.390;2023-09-07T11:09:11;27.10;97.90
1880;DHT22;49285;49.002;8.390;2023-09-07T11:11:37;27.10;97.70
1880;DHT22;49285;49.002;8.390;2023-09-07T11:14:04;27.20;97.60
1880;DHT22;49285;49.002;8.390;2023-09-07T11:16:30;27.20;97.60
1880;DHT22;49285;49.002;8.390;2023-09-07T11:18:56;27.30;97.60
1880;DHT22;49285;49.002;8.390;2023-09-07T11:21:22;27.30;97.50
1880;DHT22;49285;49.002;8.390;2023-09-07T11:23:48;27.40;97.40
1880;DHT22;49285;49.002;8.390;2023-09-07T11:26:14;27.40;97.30
1880;DHT22;49285;49.002;8.390;2023-09-07T11:28:46;27.50;97.30
1880;DHT22;49285;49.002;8.390;2023-09-07T11:31:11;27.60;97.20
1880;DHT22;49285;49.002;8.390;2023-09-07T11:33:37;27.70;97.00
1880;DHT22;49285;49.002;8.390;2023-09-07T11:36:04;27.70;96.90
1880;DHT22;49285;49.002;8.390;2023-09-07T11:38:35;27.70;96.80
1880;DHT22;49285;49.002;8.390;2023-09-07T11:41:01;27.90;96.60
1880;DHT22;49285;49.002;8.390;2023-09-07T11:43:26;27.90;96.40
1880;DHT22;49285;49.002;8.390;2023-09-07T11:45:52;28.00;96.60
1880;DHT22;49285;49.002;8.390;2023-09-07T11:48:17;28.20;96.10
1880;DHT22;49285;49.002;8.390;2023-09-07T11:50:43;28.30;96.20
1880;DHT22;49285;49.002;8.390;2023-09-07T11:53:09;28.40;96.20
1880;DHT22;49285;49.002;8.390;2023-09-07T11:55:35;28.60;96.10
1880;DHT22;49285;49.002;8.390;2023-09-07T11:58:01;28.70;95.90
1880;DHT22;49285;49.002;8.390;2023-09-07T12:00:27;29.00;95.70
1880;DHT22;49285;49.002;8.390;2023-09-07T12:02:53;29.30;95.30
1880;DHT22;49285;49.002;8.390;2023-09-07T12:05:19;29.60;94.90
1880;DHT22;49285;49.002;8.390;2023-09-07T12:07:45;30.10;94.10
1880;DHT22;49285;49.002;8.390;2023-09-07T12:10:11;30.60;93.40
1880;DHT22;49285;49.002;8.390;2023-09-07T12:12:37;31.00;92.30
1880;DHT22;49285;49.002;8.390;2023-09-07T12:15:04;31.40;91.70
1880;DHT22;49285;49.002;8.390;2023-09-07T12:17:30;31.70;90.50
1880;DHT22;49285;49.002;8.390;2023-09-07T12:19:56;32.00;88.90
1880;DHT22;49285;49.002;8.390;2023-09-07T12:22:22;32.20;87.50
1880;DHT22;49285;49.002;8.390;2023-09-07T12:24:47;32.40;86.60
1880;DHT22;49285;49.002;8.390;2023-09-07T12:27:13;32.70;86.00
1880;DHT22;49285;49.002;8.390;2023-09-07T12:29:39;32.90;84.90
1880;DHT22;49285;49.002;8.390;2023-09-07T12:32:05;33.10;83.40
1880;DHT22;49285;49.002;8.390;2023-09-07T12:34:31;33.20;83.40
1880;DHT22;49285;49.002;8.390;2023-09-07T12:36:56;33.40;82.20
1880;DHT22;49285;49.002;8.390;2023-09-07T12:39:22;33.50;81.50
1880;DHT22;49285;49.002;8.390;2023-09-07T12:41:47;33.70;79.80
1880;DHT22;49285;49.002;8.390;2023-09-07T12:44:13;33.80;79.00
1880;DHT22;49285;49.002;8.390;2023-09-07T12:46:39;33.90;78.80
1880;DHT22;49285;49.002;8.390;2023-09-07T12:49:04;34.20;77.90
1880;DHT22;49285;49.002;8.390;2023-09-07T12:51:33;34.30;77.10
1880;DHT22;49285;49.002;8.390;2023-09-07T12:53:58;34.50;74.50
1880;DHT22;49285;49.002;8.390;2023-09-07T12:56:24;34.70;74.30
1880;DHT22;49285;49.002;8.390;2023-09-07T12:58:50;34.70;74.20
1880;DHT22;49285;49.002;8.390;2023-09-07T13:01:17;34.70;73.50
1880;DHT22;49285;49.002;8.390;2023-09-07T13:03:43;34.60;72.10
1880;DHT22;49285;49.002;8.390;2023-09-07T13:06:09;34.80;71.90
1880;DHT22;49285;49.002;8.390;2023-09-07T13:08:35;35.00;70.90
1880;DHT22;49285;49.002;8.390;2023-09-07T13:11:01;35.20;70.60
1880;DHT22;49285;49.002;8.390;2023-09-07T13:13:26;35.30;70.30
1880;DHT22;49285;49.002;8.390;2023-09-07T13:15:57;35.60;70.10
1880;DHT22;49285;49.002;8.390;2023-09-07T13:18:22;35.90;66.10
1880;DHT22;49285;49.002;8.390;2023-09-07T13:20:48;36.10;65.90
1880;DHT22;49285;49.002;8.390;2023-09-07T13:23:16;36.30;64.60
1880;DHT22;49285;49.002;8.390;2023-09-07T13:25:41;36.40;63.30
1880;DHT22;49285;49.002;8.390;2023-09-07T13:28:07;36.70;63.10
1880;DHT22;49285;49.002;8.390;2023-09-07T13:30:33;37.10;61.60
1880;DHT22;49285;49.002;8.390;2023-09-07T13:32:58;37.30;60.40
1880;DHT22;49285;49.002;8.390;2023-09-07T13:35:25;37.60;59.30
1880;DHT22;49285;49.002;8.390;2023-09-07T13:37:50;37.90;58.20
1880;DHT22;49285;49.002;8.390;2023-09-07T13:40:16;38.10;57.50
1880;DHT22;49285;49.002;8.390;2023-09-07T13:42:45;38.40;57.00
1880;DHT22;49285;49.002;8.390;2023-09-07T13:45:11;38.50;56.30
1880;DHT22;49285;49.002;8.390;2023-09-07T13:47:38;38.80;55.90
1880;DHT22;49285;49.002;8.390;2023-09-07T13:50:04;38.90;55.40
1880;DHT22;49285;49.002;8.390;2023-09-07T13:52:30;39.00;55.10
1880;DHT22;49285;49.002;8.390;2023-09-07T13:54:56;39.00;54.90
1880;DHT22;49285;49.002;8.390;2023-09-07T13:57:22;39.10;54.90
1880;DHT22;49285;49.002;8.390;2023-09-07T13:59:47;39.10;54.50
1880;DHT22;49285;49.002;8.390;2023-09-07T14:02:13;39.10;54.30
1880;DHT22;49285;49.002;8.390;2023-09-07T14:04:38;39.30;54.10
1880;DHT22;49285;49.002;8.390;2023-09-07T14:07:04;39.40;53.40
1880;DHT22;49285;49.002;8.390;2023-09-07T14:09:29;39.40;52.60
1880;DHT22;49285;49.002;8.390;2023-09-07T14:11:55;39.50;52.40
1880;DHT22;49285;49.002;8.390;2023-09-07T14:14:21;39.60;52.10
1880;DHT22;49285;49.002;8.390;2023-09-07T14:16:46;39.50;51.90
1880;DHT22;49285;49.002;8.390;2023-09-07T14:19:12;39.60;51.60
1880;DHT22;49285;49.002;8.390;2023-09-07T14:21:38;39.80;51.10
1880;DHT22;49285;49.002;8.390;2023-09-07T14:24:04;40.00;50.70
1880;DHT22;49285;49.002;8.390;2023-09-07T14:26:29;40.40;50.40
1880;DHT22;49285;49.002;8.390;2023-09-07T14:28:55;40.60;49.80
1880;DHT22;49285;49.002;8.390;2023-09-07T14:31:20;41.10;49.60
1880;DHT22;49285;49.002;8.390;2023-09-07T14:33:46;41.40;48.80
1880;DHT22;49285;49.002;8.390;2023-09-07T14:36:12;41.50;48.40
1880;DHT22;49285;49.002;8.390;2023-09-07T14:38:37;41.50;48.30
1880;DHT22;49285;49.002;8.390;2023-09-07T14:41:10;41.30;48.10
1880;DHT22;49285;49.002;8.390;2023-09-07T14:43:38;40.90;48.30
1880;DHT22;49285;49.002;8.390;2023-09-07T14:46:04;40.80;48.40
1880;DHT22;49285;49.002;8.390;2023-09-07T14:48:29;40.80;48.30
1880;DHT22;49285;49.002;8.390;2023-09-07T14:50:55;40.70;47.80
1880;DHT22;49285;49.002;8.390;2023-09-07T14:53:20;40.50;47.60
1880;DHT22;49285;49.002;8.390;2023-09-07T14:55:47;40.30;48.00
1880;DHT22;49285;49.002;8.390;2023-09-07T14:58:12;40.10;48.30
1880;DHT22;49285;49.002;8.390;2023-09-07T15:00:38;39.80;49.00
1880;DHT22;49285;49.002;8.390;2023-09-07T15:03:04;39.40;49.10
1880;DHT22;49285;49.002;8.390;2023-09-07T15:05:30;38.90;49.60
1880;DHT22;49285;49.002;8.390;2023-09-07T15:07:56;38.60;49.60
1880;DHT22;49285;49.002;8.390;2023-09-07T15:10:21;38.40;49.90
1880;DHT22;49285;49.002;8.390;2023-09-07T15:12:47;38.10;50.60
1880;DHT22;49285;49.002;8.390;2023-09-07T15:15:12;37.80;50.90
1880;DHT22;49285;49.002;8.390;2023-09-07T15:17:38;37.50;51.30
1880;DHT22;49285;49.002;8.390;2023-09-07T15:20:07;37.30;51.40
1880;DHT22;49285;49.002;8.390;2023-09-07T15:22:33;37.10;51.60
1880;DHT22;49285;49.002;8.390;2023-09-07T15:24:59;37.00;51.80
1880;DHT22;49285;49.002;8.390;2023-09-07T15:27:26;36.80;52.70
1880;DHT22;49285;49.002;8.390;2023-09-07T15:29:52;36.60;52.90
1880;DHT22;49285;49.002;8.390;2023-09-07T15:32:19;36.50;52.90
1880;DHT22;49285;49.002;8.390;2023-09-07T15:34:44;36.40;52.50
1880;DHT22;49285;49.002;8.390;2023-09-07T15:37:10;36.20;52.80
1880;DHT22;49285;49.002;8.390;2023-09-07T15:39:36;36.20;52.90